Time;durP1;ratioP1;P1;durP2;ratioP2;P2;SDS_P1;SDS_P2;PMS_P1;PMS_P2;Temp;Humidity;BMP_temperature;BMP_pressure;BME280_temperature;BME280_humidity;BME280_pressure;Samples;Min_cycle;Max_cycle;Signal;HPM_P1;HPM_P2
2023/04/14 00:00:12;;;;;;;2.75;1.60;;;;;;;2.68;100.00;99338.03;4920528;29;20064;-96
2023/04/14 00:02:38;;;;;;;8.07;2.15;;;;;;;2.68;100.00;99338.88;4904124;29;20032;-96
2023/04/14 00:05:04;;;;;;;4.18;1.42;;;;;;;2.76;100.00;99351.28;4903031;29;20028;-96
2023/04/14 00:07:35;;;;;;;5.63;1.45;;;;;;;2.54;100.00;99326.72;4918802;29;20372;-96
2023/04/14 00:10:13;;;;;;;6.95;1.38;;;;;;;2.53;100.00;99319.94;4921541;29;20024;-96
2023/04/14 00:12:39;;;;;;;5.55;1.45;;;;;;;2.49;100.00;99328.63;4919799;29;20036;-96
2023/04/14 00:15:05;;;;;;;3.58;1.10;;;;;;;2.51;100.00;99321.75;4905098;29;20027;-96
2023/04/14 00:17:34;;;;;;;5.68;1.27;;;;;;;2.85;100.00;99353.41;4920224;29;20029;-96
2023/04/14 00:20:03;;;;;;;5.57;1.63;;;;;;;2.86;100.00;99321.13;4905403;29;20028;-96
2023/04/14 00:22:31;;;;;;;3.10;1.30;;;;;;;3.01;100.00;99325.56;4921427;29;20055;-96
2023/04/14 00:25:00;;;;;;;8.20;1.90;;;;;;;3.35;100.00;99345.25;4922409;29;20466;-96
2023/04/14 00:27:26;;;;;;;5.45;1.67;;;;;;;3.49;100.00;99337.00;4906337;29;20051;-96
2023/04/14 00:29:52;;;;;;;10.55;1.95;;;;;;;3.52;100.00;99316.44;4905754;29;20032;-96
2023/04/14 00:32:23;;;;;;;4.45;1.75;;;;;;;3.54;100.00;99313.81;4921378;29;20047;-96
2023/04/14 00:34:55;;;;;;;8.23;2.08;;;;;;;3.55;100.00;99305.25;4921030;29;20478;-96
2023/04/14 00:37:24;;;;;;;8.70;1.55;;;;;;;3.73;100.00;99324.81;4906974;29;20028;-96
2023/04/14 00:39:56;;;;;;;8.77;1.95;;;;;;;3.70;100.00;99304.53;4905487;29;20035;-96
2023/04/14 00:42:24;;;;;;;6.25;1.55;;;;;;;3.71;100.00;99297.72;4922348;29;20059;-96
2023/04/14 00:44:53;;;;;;;7.13;1.50;;;;;;;3.73;100.00;99301.84;4905693;29;20042;-96
2023/04/14 00:47:26;;;;;;;3.35;1.15;;;;;;;3.66;100.00;99295.38;4920750;29;20034;-96
2023/04/14 00:49:52;;;;;;;8.23;1.38;;;;;;;3.70;100.00;99296.88;4904965;29;20395;-96
2023/04/14 00:52:20;;;;;;;6.22;1.50;;;;;;;3.80;100.00;99295.56;4904722;29;20036;-95
2023/04/14 00:54:46;;;;;;;4.63;1.50;;;;;;;3.89;100.00;99301.13;4920398;29;20040;-96
2023/04/14 00:57:15;;;;;;;3.13;1.15;;;;;;;3.91;100.00;99287.38;4919053;29;20024;-96
2023/04/14 00:59:43;;;;;;;5.45;1.50;;;;;;;4.06;100.00;99298.56;4904702;29;20036;-96
2023/04/14 01:02:15;;;;;;;9.35;1.40;;;;;;;4.05;100.00;99284.16;4904110;29;20122;-96
2023/04/14 01:04:41;;;;;;;6.22;1.63;;;;;;;4.10;100.00;99287.31;4920767;29;20475;-96
2023/04/14 01:07:07;;;;;;;2.28;1.40;;;;;;;4.15;100.00;99279.41;4905091;29;20035;-96
2023/04/14 01:09:33;;;;;;;4.65;1.30;;;;;;;4.17;100.00;99275.03;4904215;29;20471;-96
2023/04/14 01:12:36;;;;;;;8.48;1.73;;;;;;;4.42;100.00;99293.34;4905715;29;20034;-96
2023/04/14 01:15:33;;;;;;;4.97;1.35;;;;;;;4.40;100.00;99279.84;4907579;29;20028;-96
2023/04/14 01:18:35;;;;;;;3.78;1.48;;;;;;;4.39;100.00;99272.22;4921932;29;20505;-96
2023/04/14 01:21:09;;;;;;;;;;;;;;;4.51;100.00;99289.50;4882950;29;20099;-96
2023/04/14 01:23:52;;;;;;;9.70;1.50;;;;;;;4.53;100.00;99290.25;4903150;29;19911;-96
2023/04/14 01:26:31;;;;;;;13.02;2.10;;;;;;;4.44;100.00;99258.34;4905608;29;20482;-96
2023/04/14 01:29:30;;;;;;;5.65;1.90;;;;;;;4.50;100.00;99259.75;4918259;29;20040;-94
2023/04/14 01:32:09;;;;;;;5.65;1.48;;;;;;;4.39;100.00;99241.56;4903354;29;20040;-96
2023/04/14 01:34:43;;;;;;;7.90;1.40;;;;;;;4.57;100.00;99276.41;4919633;29;20034;-96
2023/04/14 01:37:23;;;;;;;5.28;1.40;;;;;;;4.60;100.00;99273.69;4904199;29;20546;-96
2023/04/14 01:39:56;;;;;;;7.32;1.63;;;;;;;4.57;100.00;99266.19;4904224;29;20055;-95
2023/04/14 01:42:26;;;;;;;4.20;1.63;;;;;;;4.50;100.00;99252.91;4903324;29;20031;-96
2023/04/14 01:45:00;;;;;;;10.45;2.97;;;;;;;4.49;100.00;99253.81;4904078;29;20028;-96
2023/04/14 01:47:28;;;;;;;4.70;1.30;;;;;;;4.51;100.00;99256.28;4902920;29;20024;-96
2023/04/14 01:49:55;;;;;;;4.20;1.42;;;;;;;4.56;100.00;99254.34;4904026;29;20029;-95
2023/04/14 01:52:26;;;;;;;4.78;1.65;;;;;;;4.46;100.00;99243.75;4902181;29;20095;-96
2023/04/14 01:55:01;;;;;;;5.18;1.35;;;;;;;4.62;100.00;99259.13;4920178;29;20541;-96
2023/04/14 01:57:28;;;;;;;5.50;1.33;;;;;;;4.71;100.00;99262.94;4919650;29;20087;-95
2023/04/14 01:59:57;;;;;;;9.77;1.80;;;;;;;4.62;100.00;99251.44;4918741;29;20067;-95
2023/04/14 02:02:24;;;;;;;3.47;1.20;;;;;;;4.64;100.00;99241.97;4917985;29;20075;-96
2023/04/14 02:04:52;;;;;;;5.90;1.23;;;;;;;4.68;100.00;99230.69;4918320;29;20498;-96
2023/04/14 02:07:20;;;;;;;7.35;1.42;;;;;;;4.72;100.00;99234.72;4917536;29;20028;-95
2023/04/14 02:09:48;;;;;;;7.55;1.05;;;;;;;4.71;100.00;99232.25;4902646;29;20032;-95
2023/04/14 02:12:25;;;;;;;3.10;1.42;;;;;;;4.74;100.00;99231.28;4902007;29;20024;-95
2023/04/14 02:14:54;;;;;;;5.45;0.85;;;;;;;4.72;100.00;99209.16;4902565;29;20028;-95
2023/04/14 02:17:32;;;;;;;8.35;1.52;;;;;;;4.74;100.00;99215.94;4919536;29;20024;-95
2023/04/14 02:19:59;;;;;;;8.27;1.27;;;;;;;4.64;100.00;99195.97;4905151;29;20036;-95
2023/04/14 02:22:27;;;;;;;8.63;1.60;;;;;;;4.87;100.00;99232.25;4918635;29;20050;-96
2023/04/14 02:24:59;;;;;;;5.50;1.40;;;;;;;4.84;100.00;99224.75;4919296;29;20032;-96
2023/04/14 02:27:38;;;;;;;6.35;0.80;;;;;;;4.82;100.00;99213.78;4904878;29;20083;-96
2023/04/14 02:30:14;;;;;;;9.90;1.20;;;;;;;4.75;100.00;99202.25;4903012;29;20036;-96
2023/04/14 02:32:45;;;;;;;6.57;1.48;;;;;;;4.94;100.00;99225.91;4919359;29;20462;-96
2023/04/14 02:35:25;;;;;;;9.20;1.88;;;;;;;4.87;100.00;99204.13;4917953;29;20063;-96
2023/04/14 02:37:56;;;;;;;3.85;1.17;;;;;;;4.79;100.00;99190.97;4904006;29;20035;-96
2023/04/14 02:40:38;;;;;;;9.93;1.40;;;;;;;4.79;100.00;99186.66;4919823;29;20060;-96
2023/04/14 02:43:32;;;;;;;8.52;1.77;;;;;;;4.87;100.00;99191.34;4920964;29;20032;-96
2023/04/14 02:46:03;;;;;;;16.10;2.47;;;;;;;5.00;100.00;99202.59;4920139;29;20060;-96
2023/04/14 02:48:53;;;;;;;8.93;1.30;;;;;;;4.89;100.00;99189.56;4921051;29;20068;-96
2023/04/14 02:51:30;;;;;;;7.75;1.73;;;;;;;4.90;100.00;99199.72;4921271;29;20036;-96
2023/04/14 02:54:29;;;;;;;9.23;1.13;;;;;;;4.91;100.00;99195.41;4920315;29;20031;-96
2023/04/14 02:57:03;;;;;;;8.43;1.33;;;;;;;4.78;100.00;99166.28;4905998;29;20024;-96
2023/04/14 02:59:32;;;;;;;5.82;1.63;;;;;;;4.83;100.00;99171.97;4903023;29;20043;-96
2023/04/14 03:02:08;;;;;;;8.98;1.30;;;;;;;4.81;100.00;99166.13;4903224;29;20461;-96
2023/04/14 03:04:40;;;;;;;4.25;0.98;;;;;;;4.84;100.00;99160.84;4920220;29;20035;-96
2023/04/14 03:07:10;;;;;;;10.88;1.80;;;;;;;4.95;100.00;99184.13;4923910;29;20028;-96
2023/04/14 03:09:39;;;;;;;10.52;1.48;;;;;;;4.84;100.00;99163.41;4924297;29;20047;-96
2023/04/14 03:12:15;;;;;;;13.55;1.83;;;;;;;4.87;100.00;99169.16;4906033;29;20510;-95
2023/04/14 03:14:43;;;;;;;5.18;1.38;;;;;;;4.74;100.00;99144.38;4921140;29;20103;-96
2023/04/14 03:17:10;;;;;;;5.25;0.98;;;;;;;4.77;100.00;99159.53;4922475;29;20024;-96
2023/04/14 03:19:40;;;;;;;9.70;1.30;;;;;;;4.77;100.00;99155.25;4905449;29;20043;-96
2023/04/14 03:22:17;;;;;;;6.30;1.52;;;;;;;4.70;100.00;99134.28;4907299;29;20016;-96
2023/04/14 03:24:44;;;;;;;4.80;1.02;;;;;;;4.81;100.00;99164.41;4905773;29;20479;-96
2023/04/14 03:27:21;;;;;;;4.43;1.33;;;;;;;4.71;100.00;99146.19;4909966;29;20369;-96
2023/04/14 03:29:57;;;;;;;2.92;1.05;;;;;;;4.67;100.00;99131.91;4907236;29;20489;-96
2023/04/14 03:32:30;;;;;;;8.63;1.30;;;;;;;4.62;100.00;99123.69;4907399;29;20102;-96
2023/04/14 03:35:00;;;;;;;12.25;1.60;;;;;;;4.65;100.00;99125.25;4906805;29;20036;-96
2023/04/14 03:37:40;;;;;;;8.32;1.33;;;;;;;4.78;100.00;99149.25;4906232;29;20024;-96
2023/04/14 03:40:10;;;;;;;10.32;1.73;;;;;;;4.84;100.00;99148.88;4905419;29;20024;-96
2023/04/14 03:42:43;;;;;;;6.85;1.17;;;;;;;4.63;100.00;99122.78;4906250;29;20035;-96
2023/04/14 03:45:23;;;;;;;5.30;1.40;;;;;;;4.81;100.00;99151.63;4907493;29;20470;-96
2023/04/14 03:47:59;;;;;;;8.23;0.95;;;;;;;4.62;100.00;99110.91;4924739;29;20055;-96
2023/04/14 03:50:44;;;;;;;10.77;2.13;;;;;;;4.58;100.00;99109.41;4907319;29;20295;-97
2023/04/14 03:53:20;;;;;;;5.95;1.10;;;;;;;4.82;100.00;99139.66;4908860;29;20079;-96
2023/04/14 03:56:07;;;;;;;9.45;1.50;;;;;;;4.75;100.00;99107.66;4907715;29;20059;-96
2023/04/14 03:58:36;;;;;;;7.78;1.60;;;;;;;4.93;100.00;99114.34;4924708;29;20075;-96
2023/04/14 04:01:10;;;;;;;4.35;1.27;;;;;;;4.87;100.00;99104.44;4905978;29;20040;-96
2023/04/14 04:03:47;;;;;;;8.57;1.48;;;;;;;4.88;100.00;99090.75;4927486;29;20352;-96
2023/04/14 04:06:32;;;;;;;7.93;1.13;;;;;;;4.85;100.00;99096.03;4908137;29;20025;-96
2023/04/14 04:09:03;;;;;;;9.93;1.33;;;;;;;5.03;100.00;99115.47;4908085;29;20064;-96
2023/04/14 04:11:42;;;;;;;5.82;1.20;;;;;;;4.95;100.00;99104.84;4907400;29;20036;-96
2023/04/14 04:14:09;;;;;;;7.80;1.10;;;;;;;4.96;100.00;99101.38;4924845;29;20091;-96
2023/04/14 04:16:50;;;;;;;13.57;1.45;;;;;;;4.85;100.00;99096.88;4907480;29;20064;-96
2023/04/14 04:19:39;;;;;;;4.65;1.25;;;;;;;4.91;100.00;99098.25;4926582;29;20028;-96
2023/04/14 04:22:17;;;;;;;10.27;1.77;;;;;;;4.85;100.00;99086.66;4907802;29;20036;-96
2023/04/14 04:24:58;;;;;;;4.05;0.95;;;;;;;4.94;100.00;99096.34;4909424;29;20549;-96
2023/04/14 04:27:24;;;;;;;7.03;1.23;;;;;;;4.86;100.00;99087.47;4923312;29;20024;-96
2023/04/14 04:30:06;;;;;;;8.70;1.67;;;;;;;4.85;100.00;99085.81;4905908;29;20024;-96
2023/04/14 04:33:14;;;;;;;11.35;1.42;;;;;;;5.05;100.00;99110.28;4906149;29;20028;-96
2023/04/14 04:35:26;;;;;;;6.63;2.13;;;;;;;4.87;100.00;99079.69;4915324;29;20047;-96
2023/04/14 04:37:54;;;;;;;9.88;1.80;;;;;;;4.92;100.00;99076.88;4920208;29;20043;-96
2023/04/14 04:40:25;;;;;;;10.95;1.70;;;;;;;5.11;100.00;99102.25;4906643;29;20043;-96
2023/04/14 04:42:51;;;;;;;14.40;1.95;;;;;;;5.00;100.00;99079.00;4913741;29;20032;-96
2023/04/14 04:45:43;;;;;;;10.32;1.67;;;;;;;5.19;100.00;99097.50;4910967;29;20039;-96
2023/04/14 04:49:21;;;;;;;15.07;1.65;;;;;;;5.09;100.00;99079.31;4923107;29;20064;-96
2023/04/14 04:51:46;;;;;;;13.30;1.70;;;;;;;5.06;100.00;99071.00;4915301;29;20032;-96
2023/04/14 04:54:12;;;;;;;12.32;1.23;;;;;;;5.07;100.00;99076.03;4919080;29;20418;-96
2023/04/14 04:56:38;;;;;;;6.30;1.48;;;;;;;5.12;100.00;99085.97;4902981;29;20028;-96
2023/04/14 04:59:07;;;;;;;11.48;1.45;;;;;;;5.00;100.00;99074.75;4903913;29;20024;-94
2023/04/14 05:01:33;;;;;;;13.70;2.15;;;;;;;5.18;100.00;99092.50;4905331;29;20115;-94
2023/04/14 05:03:59;;;;;;;9.27;1.10;;;;;;;5.01;100.00;99071.25;4918158;29;20127;-95
2023/04/14 05:06:25;;;;;;;8.02;1.80;;;;;;;5.08;100.00;99085.34;4902480;29;20032;-96
2023/04/14 05:08:51;;;;;;;10.77;1.33;;;;;;;5.17;100.00;99081.47;4901575;29;20028;-94
2023/04/14 05:11:17;;;;;;;6.82;1.88;;;;;;;5.10;100.00;99055.41;4918848;29;20028;-96
2023/04/14 05:13:43;;;;;;;11.05;2.92;;;;;;;5.09;100.00;99073.38;4902120;29;20028;-95
2023/04/14 05:16:09;;;;;;;11.90;1.38;;;;;;;5.13;100.00;99085.91;4902311;29;20020;-95
2023/04/14 05:18:35;;;;;;;8.60;1.40;;;;;;;4.95;100.00;99061.38;4902295;29;20080;-94
2023/04/14 05:21:13;;;;;;;7.13;1.35;;;;;;;4.99;100.00;99062.03;4917726;29;20490;-94
2023/04/14 05:23:42;;;;;;;17.25;2.10;;;;;;;5.18;100.00;99080.53;4901685;29;20493;-94
2023/04/14 05:26:08;;;;;;;12.27;1.70;;;;;;;5.15;100.00;99068.75;4917537;29;20091;-95
2023/04/14 05:28:34;;;;;;;13.30;1.70;;;;;;;5.19;100.00;99079.59;4916412;29;20024;-96
2023/04/14 05:31:00;;;;;;;10.95;1.58;;;;;;;5.12;100.00;99074.03;4918519;29;20024;-95
2023/04/14 05:33:25;;;;;;;13.73;2.00;;;;;;;5.17;100.00;99084.00;4902391;29;20043;-93
2023/04/14 05:35:51;;;;;;;9.30;1.40;;;;;;;5.17;100.00;99083.16;4902784;29;20028;-95
2023/04/14 05:38:18;;;;;;;9.20;1.67;;;;;;;5.20;100.00;99080.47;4902830;29;20028;-94
2023/04/14 05:40:44;;;;;;;15.20;1.80;;;;;;;5.09;100.00;99043.50;4916663;29;20028;-96
2023/04/14 05:43:09;;;;;;;11.10;1.30;;;;;;;5.29;100.00;99064.56;4900909;29;20103;-94
2023/04/14 05:45:35;;;;;;;13.38;1.80;;;;;;;5.30;100.00;99061.91;4917064;29;20024;-94
2023/04/14 05:48:00;;;;;;;9.60;1.60;;;;;;;5.30;100.00;99067.03;4901120;29;20032;-94
2023/04/14 05:50:26;;;;;;;15.70;2.03;;;;;;;5.21;100.00;99030.94;4901517;29;20024;-95
2023/04/14 05:52:52;;;;;;;9.43;1.80;;;;;;;5.33;100.00;99051.50;4901542;29;20032;-95
2023/04/14 05:55:18;;;;;;;9.70;1.60;;;;;;;5.29;100.00;99044.94;4916497;29;20501;-96
2023/04/14 05:57:43;;;;;;;10.82;1.63;;;;;;;5.35;100.00;99042.00;4917169;29;20080;-96
2023/04/14 06:00:32;;;;;;;14.68;2.05;;;;;;;5.35;100.00;99034.34;4899739;29;20024;-96
2023/04/14 06:02:57;;;;;;;8.75;2.00;;;;;;;5.47;100.00;99048.16;4902314;29;20071;-94
2023/04/14 06:05:23;;;;;;;17.77;1.63;;;;;;;5.45;100.00;99044.84;4900642;29;20024;-94
2023/04/14 06:07:49;;;;;;;8.23;1.70;;;;;;;5.49;100.00;99032.72;4901404;29;20067;-95
2023/04/14 06:10:14;;;;;;;11.48;2.30;;;;;;;5.56;100.00;99036.56;4892525;29;20440;-95
2023/04/14 06:12:40;;;;;;;15.00;1.70;;;;;;;5.56;100.00;99044.25;4881329;29;20356;-95
2023/04/14 06:15:06;;;;;;;6.43;1.65;;;;;;;5.62;100.00;99050.72;4894362;29;20107;-93
2023/04/14 06:18:09;;;;;;;12.20;1.65;;;;;;;5.51;100.00;99024.03;4900314;29;20032;-96
2023/04/14 06:20:35;;;;;;;8.95;1.30;;;;;;;5.60;100.00;99042.31;4855962;29;20115;-94
2023/04/14 06:23:00;;;;;;;6.28;1.23;;;;;;;5.53;100.00;99047.78;4899561;29;20482;-93
2023/04/14 06:25:25;;;;;;;12.25;1.65;;;;;;;5.51;100.00;99044.50;4900455;29;20110;-93
2023/04/14 06:27:51;;;;;;;6.68;1.60;;;;;;;5.76;100.00;99051.53;4898623;29;20501;-92
2023/04/14 06:30:16;;;;;;;12.27;1.50;;;;;;;5.49;100.00;99037.84;4899132;29;20482;-91
2023/04/14 06:32:41;;;;;;;8.18;1.70;;;;;;;5.60;100.00;99029.50;4898705;29;20036;-92
2023/04/14 06:35:07;;;;;;;6.65;1.52;;;;;;;5.41;100.00;99028.03;4898985;29;20390;-91
2023/04/14 06:37:33;;;;;;;9.07;1.15;;;;;;;5.57;100.00;99039.00;4898669;29;20052;-92
2023/04/14 06:39:58;;;;;;;10.15;1.35;;;;;;;5.53;100.00;99034.97;4897867;29;20024;-93
2023/04/14 06:42:24;;;;;;;6.57;1.50;;;;;;;5.58;100.00;99020.19;4898871;29;20565;-92
2023/04/14 06:44:49;;;;;;;6.75;2.15;;;;;;;5.69;100.00;99032.34;4898283;29;20027;-92
2023/04/14 06:47:19;;;;;;;5.60;1.23;;;;;;;5.70;100.00;99038.28;4899207;29;20055;-92
2023/04/14 06:49:45;;;;;;;9.85;1.35;;;;;;;5.64;100.00;99026.69;4899176;29;20024;-92
2023/04/14 06:52:10;;;;;;;7.82;1.50;;;;;;;5.72;100.00;99033.91;4899969;29;20036;-93
2023/04/14 06:54:35;;;;;;;13.05;1.90;;;;;;;5.65;100.00;99025.75;4900112;29;20086;-94
2023/04/14 06:57:01;;;;;;;7.50;1.42;;;;;;;5.69;100.00;99041.75;4899439;29;20039;-93
2023/04/14 06:59:28;;;;;;;11.98;1.95;;;;;;;5.68;100.00;99024.75;4898793;29;20056;-91
2023/04/14 07:01:53;;;;;;;10.10;1.70;;;;;;;5.55;100.00;99028.03;4899024;29;20063;-92
2023/04/14 07:04:19;;;;;;;10.10;2.08;;;;;;;5.48;100.00;99034.44;4899336;29;20024;-92
2023/04/14 07:06:44;;;;;;;7.55;1.30;;;;;;;5.40;100.00;99025.56;4899966;29;20035;-95
2023/04/14 07:09:10;;;;;;;5.75;1.08;;;;;;;5.51;100.00;99030.88;4898669;29;20479;-95
2023/04/14 07:11:35;;;;;;;13.60;1.55;;;;;;;5.56;100.00;99034.00;4899488;29;20036;-94
2023/04/14 07:14:00;;;;;;;6.18;1.40;;;;;;;5.59;100.00;99044.06;4898162;29;20032;-94
2023/04/14 07:16:26;;;;;;;11.45;1.67;;;;;;;5.71;100.00;99037.38;4900194;29;20080;-95
2023/04/14 07:18:51;;;;;;;6.55;1.80;;;;;;;5.64;100.00;99018.19;4899910;29;20486;-95
2023/04/14 07:21:17;;;;;;;7.15;1.20;;;;;;;5.95;100.00;99035.09;4892504;29;20105;-95
2023/04/14 07:23:42;;;;;;;10.48;1.85;;;;;;;5.97;100.00;99036.66;4890157;29;20028;-93
2023/04/14 07:26:08;;;;;;;17.05;1.85;;;;;;;5.90;100.00;99045.59;4887033;29;20515;-94
2023/04/14 07:28:33;;;;;;;7.28;1.20;;;;;;;5.72;100.00;99021.91;4894664;29;20034;-93
2023/04/14 07:31:06;;;;;;;5.97;1.48;;;;;;;5.82;100.00;99021.38;4898042;29;20028;-94
2023/04/14 07:33:33;;;;;;;6.72;1.38;;;;;;;5.74;100.00;99009.03;4897830;29;20040;-93
2023/04/14 07:35:59;;;;;;;9.52;1.52;;;;;;;5.88;100.00;99031.25;4899408;29;20475;-94
2023/04/14 07:38:26;;;;;;;10.57;1.40;;;;;;;5.97;100.00;99033.25;4899476;29;20032;-93
2023/04/14 07:40:51;;;;;;;8.45;1.60;;;;;;;5.85;100.00;99027.09;4899235;29;20028;-94
2023/04/14 07:43:17;;;;;;;10.05;1.55;;;;;;;5.80;100.00;99024.00;4899710;29;20024;-94
2023/04/14 07:45:42;;;;;;;14.48;1.40;;;;;;;5.78;100.00;99030.97;4899443;29;20471;-93
2023/04/14 07:48:08;;;;;;;12.70;1.85;;;;;;;5.72;100.00;99028.78;4899422;29;20025;-92
2023/04/14 07:50:33;;;;;;;9.52;1.17;;;;;;;5.71;100.00;99024.59;4899919;29;20028;-93
2023/04/14 07:52:59;;;;;;;12.40;2.42;;;;;;;5.70;100.00;99033.97;4901631;29;20035;-94
2023/04/14 07:55:25;;;;;;;8.90;1.20;;;;;;;5.75;100.00;99026.03;4902319;29;20040;-96
2023/04/14 07:57:50;;;;;;;7.70;1.58;;;;;;;5.85;100.00;99039.91;4901588;29;20044;-93
2023/04/14 08:00:15;;;;;;;5.38;1.52;;;;;;;5.90;100.00;99043.03;4902460;29;20068;-95
2023/04/14 08:02:41;;;;;;;4.20;1.77;;;;;;;5.75;100.00;99023.47;4901775;29;20028;-94
2023/04/14 08:05:06;;;;;;;4.85;0.80;;;;;;;5.90;100.00;99009.75;4902047;29;20024;-94
2023/04/14 08:07:32;;;;;;;13.60;1.30;;;;;;;6.03;100.00;99014.97;4901396;29;20028;-93
2023/04/14 08:09:58;;;;;;;6.38;1.42;;;;;;;6.24;100.00;99028.16;4902176;29;20028;-93
2023/04/14 08:12:24;;;;;;;8.00;0.95;;;;;;;6.09;100.00;99012.00;4902151;29;20559;-94
2023/04/14 08:14:50;;;;;;;9.30;0.75;;;;;;;6.13;100.00;99020.34;4903927;29;20032;-94
2023/04/14 08:17:15;;;;;;;5.22;0.90;;;;;;;6.07;100.00;99020.72;4902736;29;20020;-94
2023/04/14 08:19:41;;;;;;;6.88;0.70;;;;;;;5.75;100.00;99015.78;4903164;29;20368;-94
2023/04/14 08:22:06;;;;;;;8.80;1.45;;;;;;;5.84;100.00;99025.47;4903602;29;20024;-95
2023/04/14 08:24:32;;;;;;;6.88;1.13;;;;;;;5.79;100.00;99022.38;4902978;29;20084;-95
2023/04/14 08:26:58;;;;;;;5.53;1.10;;;;;;;5.64;100.00;99023.31;4902695;29;20031;-95
2023/04/14 08:29:23;;;;;;;5.57;1.08;;;;;;;5.65;100.00;99024.94;4903412;29;20043;-95
2023/04/14 08:31:49;;;;;;;8.27;1.02;;;;;;;5.47;100.00;99021.75;4911855;29;20059;-96
2023/04/14 08:34:14;;;;;;;13.52;3.78;;;;;;;5.46;100.00;99023.47;4909615;29;20471;-96
2023/04/14 08:36:40;;;;;;;8.07;1.50;;;;;;;5.52;100.00;99035.09;4910128;29;20020;-95
2023/04/14 08:39:06;;;;;;;5.75;0.93;;;;;;;5.44;100.00;99043.22;4910493;29;20032;-95
2023/04/14 08:41:37;;;;;;;8.70;1.52;;;;;;;5.23;100.00;99013.78;4911318;29;20028;-95
2023/04/14 08:44:03;;;;;;;8.13;1.00;;;;;;;5.18;100.00;99031.13;4911795;29;20100;-96
2023/04/14 08:46:30;;;;;;;8.98;1.15;;;;;;;5.24;100.00;99020.50;4911105;29;20508;-96
2023/04/14 08:49:04;;;;;;;6.97;1.25;;;;;;;5.20;100.00;99030.13;4911110;29;20487;-96
2023/04/14 08:51:34;;;;;;;8.85;0.90;;;;;;;5.22;100.00;99027.44;4904577;29;20035;-95
2023/04/14 08:54:02;;;;;;;6.93;0.90;;;;;;;5.19;100.00;99041.25;4901837;29;20044;-95
2023/04/14 08:56:32;;;;;;;7.05;1.52;;;;;;;5.13;100.00;99034.75;4901844;29;20064;-95
2023/04/14 08:59:00;;;;;;;17.45;1.45;;;;;;;5.18;100.00;99031.13;4903709;29;20383;-95
2023/04/14 09:01:27;;;;;;;7.75;0.90;;;;;;;-143.29;100.00;62188.47;4902668;29;20035;-95
2023/04/14 09:03:54;;;;;;;11.73;1.63;;;;;;;-143.29;100.00;62188.47;4903542;29;20035;-95
2023/04/14 09:06:21;;;;;;;10.20;1.50;;;;;;;-143.29;100.00;62188.47;4905958;29;20048;-96
2023/04/14 09:08:49;;;;;;;5.60;1.23;;;;;;;-143.29;100.00;62188.47;4903201;29;20546;-96
2023/04/14 09:11:18;;;;;;;7.07;1.70;;;;;;;-143.29;100.00;62188.47;4903647;29;20028;-96
2023/04/14 09:13:52;;;;;;;13.20;1.60;;;;;;;-143.29;100.00;62188.47;4902812;29;20028;-96
2023/04/14 09:16:18;;;;;;;9.18;1.10;;;;;;;-143.29;100.00;62188.47;4904631;29;20024;-96
2023/04/14 09:22:24;;;;;;;6.43;0.88;;;;;;;-143.29;100.00;62188.47;4897812;29;20135;-96
2023/04/14 09:25:27;;;;;;;;;;;;;;;;;;;;;
2023/04/14 09:27:53;;;;;;;9.40;1.40;;;;;;;-143.29;100.00;62188.47;4920336;29;20115;-96
2023/04/14 09:30:19;;;;;;;12.32;2.00;;;;;;;-143.29;100.00;62188.47;4905799;29;20055;-96
2023/04/14 09:32:45;;;;;;;8.63;1.55;;;;;;;-143.29;100.00;62188.47;4904912;29;20067;-96
2023/04/14 09:35:20;;;;;;;11.38;1.40;;;;;;;-143.29;100.00;62188.47;4910037;29;20032;-96
2023/04/14 09:37:52;;;;;;;9.57;1.20;;;;;;;-143.29;100.00;62188.47;4912202;29;20004;-96
2023/04/14 09:40:59;;;;;;;;;;;;;;;;;;;;;
2023/04/14 09:43:41;;;;;;;10.75;1.15;;;;;;;-143.29;100.00;62188.47;4926896;29;20063;-96
2023/04/14 09:46:08;;;;;;;7.85;1.25;;;;;;;-143.29;100.00;62188.47;4925444;29;20028;-95
2023/04/14 09:49:05;;;;;;;6.43;1.17;;;;;;;-143.29;100.00;62188.47;4912805;29;20028;-96
2023/04/14 09:51:34;;;;;;;11.20;1.70;;;;;;;-143.29;100.00;62188.47;4926716;29;20028;-95
2023/04/14 09:55:02;;;;;;;8.52;1.15;;;;;;;-143.29;100.00;62188.47;4917081;29;20028;-95
2023/04/14 09:57:28;;;;;;;9.60;1.58;;;;;;;-143.29;100.00;62188.47;4901430;29;20449;-96
2023/04/14 09:59:56;;;;;;;6.65;1.35;;;;;;;-143.29;100.00;62188.47;4902152;29;20052;-96
2023/04/14 10:02:22;;;;;;;13.63;1.30;;;;;;;-143.29;100.00;62188.47;4906805;29;20461;-96
2023/04/14 10:05:07;;;;;;;7.32;1.20;;;;;;;-143.29;100.00;62188.47;4923393;29;20060;-96
2023/04/14 10:07:39;;;;;;;9.70;1.98;;;;;;;-143.29;100.00;62188.47;4908916;29;20095;-96
2023/04/14 10:10:12;;;;;;;8.60;1.40;;;;;;;-143.29;100.00;62188.47;4907041;29;20084;-96
2023/04/14 10:12:47;;;;;;;5.95;0.82;;;;;;;-143.29;100.00;62188.47;4915727;29;20020;-96
2023/04/14 10:15:29;;;;;;;6.53;1.33;;;;;;;-143.29;100.00;62188.47;4910712;29;20028;-96
2023/04/14 10:17:55;;;;;;;8.50;1.00;;;;;;;-143.29;100.00;62188.47;4907910;29;20032;-96
2023/04/14 10:20:21;;;;;;;6.32;1.23;;;;;;;-143.29;100.00;62188.47;4907936;29;20032;-96
2023/04/14 10:22:48;;;;;;;9.90;1.77;;;;;;;-143.29;100.00;62188.47;4904426;29;20039;-96
2023/04/14 10:25:14;;;;;;;5.10;1.13;;;;;;;-143.29;100.00;62188.47;4921558;29;20028;-96
2023/04/14 10:27:40;;;;;;;4.75;1.05;;;;;;;-143.29;100.00;62188.47;4904116;29;20036;-95
2023/04/14 10:30:07;;;;;;;6.22;1.20;;;;;;;-143.29;100.00;62188.47;4905184;29;20119;-96
2023/04/14 10:32:34;;;;;;;5.55;1.10;;;;;;;-143.29;100.00;62188.47;4904343;29;20083;-95
2023/04/14 10:35:09;;;;;;;6.53;0.80;;;;;;;-143.29;100.00;62188.47;4902365;29;20031;-94
2023/04/14 10:37:35;;;;;;;5.28;1.00;;;;;;;-143.29;100.00;62188.47;4903233;29;20039;-94
2023/04/14 10:40:06;;;;;;;8.90;1.30;;;;;;;-143.29;100.00;62188.47;4901854;29;20055;-94
2023/04/14 10:42:53;;;;;;;8.88;1.50;;;;;;;-143.29;100.00;62188.47;4903214;29;20056;-94
2023/04/14 10:45:18;;;;;;;5.13;1.15;;;;;;;-143.29;100.00;62188.47;4903099;29;20046;-93
2023/04/14 10:47:45;;;;;;;5.50;1.30;;;;;;;-143.29;100.00;62188.47;4900961;29;20027;-93
2023/04/14 10:50:12;;;;;;;6.00;1.10;;;;;;;-143.29;100.00;62188.47;4902865;29;20091;-94
2023/04/14 10:52:48;;;;;;;8.73;1.75;;;;;;;-143.29;100.00;62188.47;4903307;29;20044;-94
2023/04/14 10:55:14;;;;;;;10.38;1.63;;;;;;;-143.29;100.00;62188.47;4903406;29;20522;-94
2023/04/14 10:57:41;;;;;;;7.85;1.35;;;;;;;-143.29;100.00;62188.47;4905518;29;20032;-95
2023/04/14 11:00:20;;;;;;;7.18;0.93;;;;;;;-143.29;100.00;62188.47;4902361;29;20028;-96
2023/04/14 11:02:57;;;;;;;3.80;0.95;;;;;;;-143.29;100.00;62188.47;4902798;29;20482;-95
2023/04/14 11:05:23;;;;;;;10.07;1.20;;;;;;;-143.29;100.00;62188.47;4906337;29;20482;-95
2023/04/14 11:07:54;;;;;;;4.85;0.98;;;;;;;-143.29;100.00;62188.47;4905977;29;20039;-95
2023/04/14 11:10:20;;;;;;;5.90;1.35;;;;;;;-143.29;100.00;62188.47;4904884;29;20083;-94
2023/04/14 11:13:07;;;;;;;5.18;0.80;;;;;;;-143.29;100.00;62188.47;4902169;29;20430;-95
2023/04/14 11:15:44;;;;;;;5.38;1.00;;;;;;;-143.29;100.00;62188.47;4901837;29;20028;-94
2023/04/14 11:18:20;;;;;;;4.05;0.90;;;;;;;-143.29;100.00;62188.47;4902575;29;20032;-95
2023/04/14 11:20:45;;;;;;;3.88;1.02;;;;;;;-143.29;100.00;62188.47;4902959;29;20389;-94
2023/04/14 11:23:13;;;;;;;5.97;1.58;;;;;;;-143.29;100.00;62188.47;4903631;29;20092;-95
2023/04/14 11:25:39;;;;;;;5.10;1.02;;;;;;;-143.29;100.00;62188.47;4903587;29;20039;-95
2023/04/14 11:28:04;;;;;;;4.88;1.10;;;;;;;-143.29;100.00;62188.47;4908159;29;20028;-95
2023/04/14 11:30:30;;;;;;;4.82;1.20;;;;;;;-143.29;100.00;62188.47;4908778;29;20032;-95
2023/04/14 11:32:56;;;;;;;7.15;1.17;;;;;;;-143.29;100.00;62188.47;4908379;29;20483;-95
2023/04/14 11:35:24;;;;;;;2.92;0.98;;;;;;;-143.29;100.00;62188.47;4907439;29;20028;-96
2023/04/14 11:37:56;;;;;;;5.20;1.13;;;;;;;-143.29;100.00;62188.47;4905378;29;20044;-95
2023/04/14 11:40:23;;;;;;;8.82;2.08;;;;;;;-143.29;100.00;62188.47;4905970;29;20028;-95
2023/04/14 11:42:56;;;;;;;3.15;0.50;;;;;;;-143.29;100.00;62188.47;4909930;29;20363;-94
2023/04/14 11:45:27;;;;;;;7.50;0.93;;;;;;;-143.29;100.00;62188.47;4907713;29;20031;-95
2023/04/14 11:47:58;;;;;;;4.43;1.00;;;;;;;-143.29;100.00;62188.47;4908760;29;20024;-95
2023/04/14 11:50:23;;;;;;;6.97;1.30;;;;;;;-143.29;100.00;62188.47;4905535;29;20028;-94